sensor_id;sensor_type;location;lat;lon;timestamp;pressure;altitude;pressure_sealevel;temperature;humidity
35758;BME280;21879;50.110;18.900;2022-10-19T00:08:22;99425.56;;;15.63;67.91
35758;BME280;21879;50.110;18.900;2022-10-19T00:18:49;99421.48;;;15.66;67.75
35758;BME280;21879;50.110;18.900;2022-10-19T00:29:17;99423.78;;;15.76;67.46
35758;BME280;21879;50.110;18.900;2022-10-19T00:39:43;99416.58;;;15.66;67.13
35758;BME280;21879;50.110;18.900;2022-10-19T00:50:12;99419.67;;;15.70;67.24
35758;BME280;21879;50.110;18.900;2022-10-19T01:00:40;99420.91;;;15.79;67.03
35758;BME280;21879;50.110;18.900;2022-10-19T01:11:17;99401.43;;;15.70;67.08
35758;BME280;21879;50.110;18.900;2022-10-19T01:21:52;99383.16;;;15.53;66.91
35758;BME280;21879;50.110;18.900;2022-10-19T01:32:31;99388.58;;;15.13;67.32
35758;BME280;21879;50.110;18.900;2022-10-19T01:43:06;99385.33;;;15.29;68.06
35758;BME280;21879;50.110;18.900;2022-10-19T01:53:41;99374.61;;;15.50;67.83
35758;BME280;21879;50.110;18.900;2022-10-19T02:04:11;99377.75;;;15.42;67.58
35758;BME280;21879;50.110;18.900;2022-10-19T02:14:43;99368.16;;;15.20;67.88
35758;BME280;21879;50.110;18.900;2022-10-19T02:25:12;99369.41;;;14.98;68.25
35758;BME280;21879;50.110;18.900;2022-10-19T02:35:40;99370.17;;;14.84;68.76
35758;BME280;21879;50.110;18.900;2022-10-19T02:46:12;99362.13;;;14.72;69.18
35758;BME280;21879;50.110;18.900;2022-10-19T02:56:42;99356.49;;;14.63;69.47
35758;BME280;21879;50.110;18.900;2022-10-19T03:07:10;99366.53;;;14.59;69.72
35758;BME280;21879;50.110;18.900;2022-10-19T03:17:37;99364.84;;;14.55;69.75
35758;BME280;21879;50.110;18.900;2022-10-19T03:28:05;99367.60;;;14.58;69.81
35758;BME280;21879;50.110;18.900;2022-10-19T03:38:32;99362.94;;;14.54;69.72
35758;BME280;21879;50.110;18.900;2022-10-19T03:48:59;99357.27;;;14.44;69.66
35758;BME280;21879;50.110;18.900;2022-10-19T03:59:27;99358.44;;;14.23;69.61
35758;BME280;21879;50.110;18.900;2022-10-19T04:09:54;99356.84;;;13.99;69.40
35758;BME280;21879;50.110;18.900;2022-10-19T04:20:21;99350.69;;;13.88;69.49
35758;BME280;21879;50.110;18.900;2022-10-19T04:30:49;99356.65;;;13.86;69.69
35758;BME280;21879;50.110;18.900;2022-10-19T04:41:18;99356.96;;;13.76;69.72
35758;BME280;21879;50.110;18.900;2022-10-19T04:51:46;99356.08;;;13.61;69.97
35758;BME280;21879;50.110;18.900;2022-10-19T05:02:13;99353.41;;;13.64;70.07
35758;BME280;21879;50.110;18.900;2022-10-19T05:12:40;99349.23;;;13.64;70.23
35758;BME280;21879;50.110;18.900;2022-10-19T05:23:08;99351.44;;;13.69;70.19
35758;BME280;21879;50.110;18.900;2022-10-19T05:33:35;99345.23;;;13.77;70.01
35758;BME280;21879;50.110;18.900;2022-10-19T05:44:02;99339.19;;;13.99;69.77
35758;BME280;21879;50.110;18.900;2022-10-19T05:54:29;99341.42;;;14.15;69.18
35758;BME280;21879;50.110;18.900;2022-10-19T06:04:57;99347.87;;;14.28;68.90
35758;BME280;21879;50.110;18.900;2022-10-19T06:15:24;99362.33;;;14.21;68.33
35758;BME280;21879;50.110;18.900;2022-10-19T06:25:51;99377.15;;;13.97;68.38
35758;BME280;21879;50.110;18.900;2022-10-19T06:36:22;99381.55;;;13.94;68.72
35758;BME280;21879;50.110;18.900;2022-10-19T06:46:49;99384.52;;;13.94;68.92
35758;BME280;21879;50.110;18.900;2022-10-19T06:57:16;99401.60;;;13.99;68.90
35758;BME280;21879;50.110;18.900;2022-10-19T07:07:44;99408.40;;;14.01;69.04
35758;BME280;21879;50.110;18.900;2022-10-19T07:18:11;99422.58;;;13.85;68.97
35758;BME280;21879;50.110;18.900;2022-10-19T07:28:40;99429.63;;;13.62;69.09
35758;BME280;21879;50.110;18.900;2022-10-19T07:39:08;99439.79;;;13.41;69.25
35758;BME280;21879;50.110;18.900;2022-10-19T07:49:35;99434.69;;;13.46;69.56
35758;BME280;21879;50.110;18.900;2022-10-19T08:00:04;99426.52;;;13.40;69.38
35758;BME280;21879;50.110;18.900;2022-10-19T08:10:32;99423.70;;;13.44;69.34
35758;BME280;21879;50.110;18.900;2022-10-19T08:21:02;99433.54;;;13.36;69.10
35758;BME280;21879;50.110;18.900;2022-10-19T08:31:29;99434.35;;;13.22;67.65
35758;BME280;21879;50.110;18.900;2022-10-19T08:42:03;99425.89;;;13.32;66.22
35758;BME280;21879;50.110;18.900;2022-10-19T08:52:34;99430.27;;;13.31;64.75
35758;BME280;21879;50.110;18.900;2022-10-19T09:03:11;99435.88;;;13.30;64.00
35758;BME280;21879;50.110;18.900;2022-10-19T09:13:49;99436.05;;;13.30;62.52
35758;BME280;21879;50.110;18.900;2022-10-19T09:24:37;99440.68;;;13.16;61.66
35758;BME280;21879;50.110;18.900;2022-10-19T09:35:23;99444.20;;;13.12;61.35
35758;BME280;21879;50.110;18.900;2022-10-19T09:45:54;99446.12;;;13.12;60.99
35758;BME280;21879;50.110;18.900;2022-10-19T09:56:25;99449.73;;;13.16;59.91
35758;BME280;21879;50.110;18.900;2022-10-19T10:06:54;99457.19;;;13.28;59.39
35758;BME280;21879;50.110;18.900;2022-10-19T10:17:27;99465.91;;;13.28;58.20
35758;BME280;21879;50.110;18.900;2022-10-19T10:27:58;99450.68;;;13.34;59.17
35758;BME280;21879;50.110;18.900;2022-10-19T10:38:29;99447.84;;;13.41;58.01
35758;BME280;21879;50.110;18.900;2022-10-19T10:49:00;99452.84;;;13.26;58.08
35758;BME280;21879;50.110;18.900;2022-10-19T10:59:31;99457.77;;;13.18;59.10
35758;BME280;21879;50.110;18.900;2022-10-19T11:10:06;99457.98;;;13.15;59.66
35758;BME280;21879;50.110;18.900;2022-10-19T11:20:44;99452.95;;;13.11;59.77
35758;BME280;21879;50.110;18.900;2022-10-19T11:31:19;99441.09;;;13.07;60.11
35758;BME280;21879;50.110;18.900;2022-10-19T11:41:57;99433.50;;;13.18;60.18
35758;BME280;21879;50.110;18.900;2022-10-19T11:52:34;99430.74;;;13.15;59.88
35758;BME280;21879;50.110;18.900;2022-10-19T12:03:19;99420.77;;;13.17;60.01
35758;BME280;21879;50.110;18.900;2022-10-19T12:13:54;99410.87;;;13.33;59.80
35758;BME280;21879;50.110;18.900;2022-10-19T12:24:24;99400.91;;;13.34;59.62
35758;BME280;21879;50.110;18.900;2022-10-19T12:34:57;99397.81;;;13.27;59.58
35758;BME280;21879;50.110;18.900;2022-10-19T12:45:31;99400.81;;;13.26;59.17
35758;BME280;21879;50.110;18.900;2022-10-19T12:56:02;99406.58;;;13.22;58.89
35758;BME280;21879;50.110;18.900;2022-10-19T13:06:34;99407.45;;;13.23;58.44
35758;BME280;21879;50.110;18.900;2022-10-19T13:17:03;99406.21;;;13.26;58.48
35758;BME280;21879;50.110;18.900;2022-10-19T13:27:36;99407.41;;;13.31;58.40
35758;BME280;21879;50.110;18.900;2022-10-19T13:38:27;99412.66;;;13.28;58.58
35758;BME280;21879;50.110;18.900;2022-10-19T14:00:03;99411.28;;;13.25;58.89
35758;BME280;21879;50.110;18.900;2022-10-19T14:10:32;99405.88;;;13.24;59.20
35758;BME280;21879;50.110;18.900;2022-10-19T14:21:29;99403.60;;;13.23;59.13
35758;BME280;21879;50.110;18.900;2022-10-19T14:31:58;99407.64;;;13.21;59.27
35758;BME280;21879;50.110;18.900;2022-10-19T14:42:36;99407.16;;;13.16;58.95
35758;BME280;21879;50.110;18.900;2022-10-19T14:53:13;99404.70;;;12.94;58.86
35758;BME280;21879;50.110;18.900;2022-10-19T15:03:47;99408.75;;;12.89;59.11
35758;BME280;21879;50.110;18.900;2022-10-19T15:14:18;99407.42;;;12.81;59.04
35758;BME280;21879;50.110;18.900;2022-10-19T15:25:22;99409.75;;;12.74;59.06
35758;BME280;21879;50.110;18.900;2022-10-19T15:35:50;99410.84;;;12.68;59.45
35758;BME280;21879;50.110;18.900;2022-10-19T15:46:26;99421.80;;;12.71;59.66
35758;BME280;21879;50.110;18.900;2022-10-19T15:56:56;99428.29;;;12.68;59.86
35758;BME280;21879;50.110;18.900;2022-10-19T16:07:28;99440.58;;;12.56;59.66
35758;BME280;21879;50.110;18.900;2022-10-19T16:17:58;99449.36;;;12.42;60.05
35758;BME280;21879;50.110;18.900;2022-10-19T16:28:27;99466.27;;;12.48;60.18
35758;BME280;21879;50.110;18.900;2022-10-19T16:38:54;99477.61;;;12.45;60.21
35758;BME280;21879;50.110;18.900;2022-10-19T16:49:21;99474.59;;;12.52;60.55
35758;BME280;21879;50.110;18.900;2022-10-19T16:59:51;99490.83;;;12.51;60.64
35758;BME280;21879;50.110;18.900;2022-10-19T17:10:24;99499.97;;;12.38;60.66
35758;BME280;21879;50.110;18.900;2022-10-19T17:20:52;99511.70;;;12.27;60.91
35758;BME280;21879;50.110;18.900;2022-10-19T17:31:20;99514.11;;;12.30;61.14
35758;BME280;21879;50.110;18.900;2022-10-19T17:41:50;99515.20;;;12.17;61.28
35758;BME280;21879;50.110;18.900;2022-10-19T17:52:17;99530.07;;;12.00;61.67
35758;BME280;21879;50.110;18.900;2022-10-19T18:02:45;99540.52;;;12.02;62.21
35758;BME280;21879;50.110;18.900;2022-10-19T18:13:13;99550.96;;;12.08;62.49
35758;BME280;21879;50.110;18.900;2022-10-19T18:23:41;99551.82;;;12.12;62.56
35758;BME280;21879;50.110;18.900;2022-10-19T18:34:13;99552.00;;;12.14;62.75
35758;BME280;21879;50.110;18.900;2022-10-19T18:44:40;99560.55;;;12.10;62.81
35758;BME280;21879;50.110;18.900;2022-10-19T18:55:09;99555.84;;;12.05;63.21
35758;BME280;21879;50.110;18.900;2022-10-19T19:05:36;99559.52;;;12.04;63.44
35758;BME280;21879;50.110;18.900;2022-10-19T19:16:05;99568.57;;;12.08;63.70
35758;BME280;21879;50.110;18.900;2022-10-19T19:26:37;99580.59;;;12.18;63.72
35758;BME280;21879;50.110;18.900;2022-10-19T19:37:04;99582.48;;;12.26;63.60
35758;BME280;21879;50.110;18.900;2022-10-19T19:47:36;99595.58;;;12.18;63.55
35758;BME280;21879;50.110;18.900;2022-10-19T19:58:03;99606.04;;;12.16;63.62
35758;BME280;21879;50.110;18.900;2022-10-19T20:08:31;99622.06;;;12.26;63.51
35758;BME280;21879;50.110;18.900;2022-10-19T20:18:59;99618.94;;;12.19;62.85
35758;BME280;21879;50.110;18.900;2022-10-19T20:29:25;99626.96;;;12.06;62.82
35758;BME280;21879;50.110;18.900;2022-10-19T20:39:53;99625.39;;;11.88;62.50
35758;BME280;21879;50.110;18.900;2022-10-19T20:50:20;99623.63;;;11.72;62.45
35758;BME280;21879;50.110;18.900;2022-10-19T21:00:48;99626.92;;;11.67;62.41
35758;BME280;21879;50.110;18.900;2022-10-19T21:11:17;99636.70;;;11.77;62.36
35758;BME280;21879;50.110;18.900;2022-10-19T21:21:47;99626.27;;;11.86;62.05
35758;BME280;21879;50.110;18.900;2022-10-19T21:32:14;99625.36;;;11.70;61.88
35758;BME280;21879;50.110;18.900;2022-10-19T21:42:43;99633.70;;;11.51;61.68
35758;BME280;21879;50.110;18.900;2022-10-19T21:53:11;99628.46;;;11.36;61.29
35758;BME280;21879;50.110;18.900;2022-10-19T22:03:38;99634.67;;;11.21;61.26
35758;BME280;21879;50.110;18.900;2022-10-19T22:14:05;99641.26;;;11.05;60.82
35758;BME280;21879;50.110;18.900;2022-10-19T22:24:33;99646.04;;;10.85;59.88
35758;BME280;21879;50.110;18.900;2022-10-19T22:35:00;99651.84;;;10.63;60.41
35758;BME280;21879;50.110;18.900;2022-10-19T22:45:28;99656.40;;;10.70;60.43
35758;BME280;21879;50.110;18.900;2022-10-19T22:55:55;99662.71;;;10.46;60.25
35758;BME280;21879;50.110;18.900;2022-10-19T23:06:23;99655.30;;;10.31;60.46
35758;BME280;21879;50.110;18.900;2022-10-19T23:16:50;99661.40;;;10.13;60.03
35758;BME280;21879;50.110;18.900;2022-10-19T23:27:18;99663.05;;;10.03;59.74
35758;BME280;21879;50.110;18.900;2022-10-19T23:37:46;99675.00;;;9.78;59.66
35758;BME280;21879;50.110;18.900;2022-10-19T23:48:13;99689.23;;;9.59;59.54
35758;BME280;21879;50.110;18.900;2022-10-19T23:58:41;99687.58;;;9.35;59.88
